sensor_id;sensor_type;location;lat;lon;timestamp;P1;durP1;ratioP1;P2;durP2;ratioP2
62941;SDS011;49042;47.318;19.874;2022-07-06T00:02:55;3.25;;;2.50;;
62941;SDS011;49042;47.318;19.874;2022-07-06T00:05:57;3.92;;;2.80;;
62941;SDS011;49042;47.318;19.874;2022-07-06T00:08:59;2.80;;;2.40;;
62941;SDS011;49042;47.318;19.874;2022-07-06T00:12:01;3.22;;;2.85;;
62941;SDS011;49042;47.318;19.874;2022-07-06T00:15:03;9.20;;;2.83;;
62941;SDS011;49042;47.318;19.874;2022-07-06T00:18:05;3.90;;;2.78;;
62941;SDS011;49042;47.318;19.874;2022-07-06T00:21:07;2.72;;;2.47;;
62941;SDS011;49042;47.318;19.874;2022-07-06T00:24:08;2.97;;;2.60;;
62941;SDS011;49042;47.318;19.874;2022-07-06T00:27:10;5.95;;;3.00;;
62941;SDS011;49042;47.318;19.874;2022-07-06T00:30:12;5.62;;;3.12;;
62941;SDS011;49042;47.318;19.874;2022-07-06T00:33:14;4.37;;;3.40;;
62941;SDS011;49042;47.318;19.874;2022-07-06T00:36:16;4.60;;;2.90;;
62941;SDS011;49042;47.318;19.874;2022-07-06T00:39:18;4.57;;;3.28;;
62941;SDS011;49042;47.318;19.874;2022-07-06T00:42:20;4.25;;;3.85;;
62941;SDS011;49042;47.318;19.874;2022-07-06T00:45:22;6.07;;;3.42;;
62941;SDS011;49042;47.318;19.874;2022-07-06T00:48:24;7.93;;;3.42;;
62941;SDS011;49042;47.318;19.874;2022-07-06T00:51:30;6.47;;;3.28;;
62941;SDS011;49042;47.318;19.874;2022-07-06T00:54:33;5.05;;;3.70;;
62941;SDS011;49042;47.318;19.874;2022-07-06T00:57:37;6.97;;;3.45;;
62941;SDS011;49042;47.318;19.874;2022-07-06T01:00:40;5.03;;;3.50;;
62941;SDS011;49042;47.318;19.874;2022-07-06T01:03:46;6.65;;;3.50;;
62941;SDS011;49042;47.318;19.874;2022-07-06T01:06:48;4.18;;;3.75;;
62941;SDS011;49042;47.318;19.874;2022-07-06T01:09:50;5.68;;;3.87;;
62941;SDS011;49042;47.318;19.874;2022-07-06T01:12:52;4.62;;;3.62;;
62941;SDS011;49042;47.318;19.874;2022-07-06T01:15:54;5.18;;;3.85;;
62941;SDS011;49042;47.318;19.874;2022-07-06T01:18:56;4.57;;;3.80;;
62941;SDS011;49042;47.318;19.874;2022-07-06T01:21:58;4.22;;;3.72;;
62941;SDS011;49042;47.318;19.874;2022-07-06T01:25:01;4.10;;;3.50;;
62941;SDS011;49042;47.318;19.874;2022-07-06T01:28:03;4.97;;;3.97;;
62941;SDS011;49042;47.318;19.874;2022-07-06T01:31:05;4.50;;;4.07;;
62941;SDS011;49042;47.318;19.874;2022-07-06T01:34:07;6.65;;;4.22;;
62941;SDS011;49042;47.318;19.874;2022-07-06T01:37:11;5.60;;;4.30;;
62941;SDS011;49042;47.318;19.874;2022-07-06T01:40:12;5.85;;;4.35;;
62941;SDS011;49042;47.318;19.874;2022-07-06T01:43:14;6.00;;;4.20;;
62941;SDS011;49042;47.318;19.874;2022-07-06T01:46:16;6.65;;;4.45;;
62941;SDS011;49042;47.318;19.874;2022-07-06T01:49:19;5.70;;;4.35;;
62941;SDS011;49042;47.318;19.874;2022-07-06T01:52:21;7.55;;;4.35;;
62941;SDS011;49042;47.318;19.874;2022-07-06T01:55:23;6.12;;;5.00;;
62941;SDS011;49042;47.318;19.874;2022-07-06T01:58:25;5.07;;;4.30;;
62941;SDS011;49042;47.318;19.874;2022-07-06T02:01:27;5.53;;;4.18;;
62941;SDS011;49042;47.318;19.874;2022-07-06T02:04:29;5.80;;;4.68;;
62941;SDS011;49042;47.318;19.874;2022-07-06T02:07:31;6.93;;;4.47;;
62941;SDS011;49042;47.318;19.874;2022-07-06T02:10:32;5.50;;;4.50;;
62941;SDS011;49042;47.318;19.874;2022-07-06T02:13:34;7.72;;;4.53;;
62941;SDS011;49042;47.318;19.874;2022-07-06T02:16:37;6.20;;;4.65;;
62941;SDS011;49042;47.318;19.874;2022-07-06T02:19:38;6.35;;;5.10;;
62941;SDS011;49042;47.318;19.874;2022-07-06T02:22:40;10.82;;;4.93;;
62941;SDS011;49042;47.318;19.874;2022-07-06T02:25:42;9.05;;;5.47;;
62941;SDS011;49042;47.318;19.874;2022-07-06T02:28:44;8.52;;;5.28;;
62941;SDS011;49042;47.318;19.874;2022-07-06T02:31:47;7.07;;;4.70;;
62941;SDS011;49042;47.318;19.874;2022-07-06T02:34:49;9.13;;;5.12;;
62941;SDS011;49042;47.318;19.874;2022-07-06T02:37:51;8.20;;;6.18;;
62941;SDS011;49042;47.318;19.874;2022-07-06T02:40:52;7.40;;;5.85;;
62941;SDS011;49042;47.318;19.874;2022-07-06T02:43:54;10.05;;;5.85;;
62941;SDS011;49042;47.318;19.874;2022-07-06T02:46:56;6.43;;;5.78;;
62941;SDS011;49042;47.318;19.874;2022-07-06T02:49:58;6.65;;;6.00;;
62941;SDS011;49042;47.318;19.874;2022-07-06T02:53:00;9.73;;;6.32;;
62941;SDS011;49042;47.318;19.874;2022-07-06T02:56:03;8.73;;;6.12;;
62941;SDS011;49042;47.318;19.874;2022-07-06T02:59:05;7.62;;;5.62;;
62941;SDS011;49042;47.318;19.874;2022-07-06T03:02:14;8.90;;;5.22;;
62941;SDS011;49042;47.318;19.874;2022-07-06T03:05:16;9.20;;;5.43;;
62941;SDS011;49042;47.318;19.874;2022-07-06T03:08:17;6.60;;;5.22;;
62941;SDS011;49042;47.318;19.874;2022-07-06T03:11:19;6.53;;;5.30;;
62941;SDS011;49042;47.318;19.874;2022-07-06T03:14:21;5.65;;;5.15;;
62941;SDS011;49042;47.318;19.874;2022-07-06T03:17:23;6.50;;;5.03;;
62941;SDS011;49042;47.318;19.874;2022-07-06T03:20:25;9.35;;;4.62;;
62941;SDS011;49042;47.318;19.874;2022-07-06T03:23:27;8.95;;;4.90;;
62941;SDS011;49042;47.318;19.874;2022-07-06T03:26:28;6.43;;;4.37;;
62941;SDS011;49042;47.318;19.874;2022-07-06T03:29:30;6.40;;;4.87;;
62941;SDS011;49042;47.318;19.874;2022-07-06T03:32:32;5.00;;;4.45;;
62941;SDS011;49042;47.318;19.874;2022-07-06T03:35:34;6.85;;;4.62;;
62941;SDS011;49042;47.318;19.874;2022-07-06T03:38:36;8.20;;;4.22;;
62941;SDS011;49042;47.318;19.874;2022-07-06T03:41:38;8.23;;;4.18;;
62941;SDS011;49042;47.318;19.874;2022-07-06T03:44:40;16.55;;;4.75;;
62941;SDS011;49042;47.318;19.874;2022-07-06T03:47:42;4.78;;;3.87;;
62941;SDS011;49042;47.318;19.874;2022-07-06T03:50:43;4.50;;;4.10;;
62941;SDS011;49042;47.318;19.874;2022-07-06T03:53:45;5.95;;;3.87;;
62941;SDS011;49042;47.318;19.874;2022-07-06T03:56:47;4.10;;;3.70;;
62941;SDS011;49042;47.318;19.874;2022-07-06T03:59:49;3.90;;;3.42;;
62941;SDS011;49042;47.318;19.874;2022-07-06T04:02:50;5.97;;;3.55;;
62941;SDS011;49042;47.318;19.874;2022-07-06T04:05:52;6.55;;;3.60;;
62941;SDS011;49042;47.318;19.874;2022-07-06T04:08:54;4.50;;;2.80;;
62941;SDS011;49042;47.318;19.874;2022-07-06T04:11:56;4.28;;;2.72;;
62941;SDS011;49042;47.318;19.874;2022-07-06T04:14:58;4.80;;;3.00;;
62941;SDS011;49042;47.318;19.874;2022-07-06T04:18:00;4.78;;;2.70;;
62941;SDS011;49042;47.318;19.874;2022-07-06T04:21:02;3.80;;;2.60;;
62941;SDS011;49042;47.318;19.874;2022-07-06T04:24:04;2.90;;;2.60;;
62941;SDS011;49042;47.318;19.874;2022-07-06T04:27:06;4.15;;;2.80;;
62941;SDS011;49042;47.318;19.874;2022-07-06T04:30:08;2.47;;;2.28;;
62941;SDS011;49042;47.318;19.874;2022-07-06T04:33:10;5.82;;;2.33;;
62941;SDS011;49042;47.318;19.874;2022-07-06T04:36:12;4.37;;;2.30;;
62941;SDS011;49042;47.318;19.874;2022-07-06T04:39:14;2.85;;;2.10;;
62941;SDS011;49042;47.318;19.874;2022-07-06T04:42:16;3.10;;;2.80;;
62941;SDS011;49042;47.318;19.874;2022-07-06T04:45:17;6.05;;;1.85;;
62941;SDS011;49042;47.318;19.874;2022-07-06T04:48:19;2.75;;;1.85;;
62941;SDS011;49042;47.318;19.874;2022-07-06T04:51:21;1.90;;;1.80;;
62941;SDS011;49042;47.318;19.874;2022-07-06T04:54:23;3.50;;;1.70;;
62941;SDS011;49042;47.318;19.874;2022-07-06T04:57:25;2.58;;;1.60;;
62941;SDS011;49042;47.318;19.874;2022-07-06T05:00:27;2.25;;;1.42;;
62941;SDS011;49042;47.318;19.874;2022-07-06T05:03:29;1.50;;;1.37;;
62941;SDS011;49042;47.318;19.874;2022-07-06T05:06:31;1.60;;;1.40;;
62941;SDS011;49042;47.318;19.874;2022-07-06T05:09:33;4.87;;;1.85;;
62941;SDS011;49042;47.318;19.874;2022-07-06T05:12:35;2.60;;;1.45;;
62941;SDS011;49042;47.318;19.874;2022-07-06T05:15:37;4.82;;;1.58;;
62941;SDS011;49042;47.318;19.874;2022-07-06T05:18:39;1.52;;;1.23;;
62941;SDS011;49042;47.318;19.874;2022-07-06T05:21:40;3.62;;;1.58;;
62941;SDS011;49042;47.318;19.874;2022-07-06T05:24:42;8.00;;;1.73;;
62941;SDS011;49042;47.318;19.874;2022-07-06T05:27:44;2.03;;;1.60;;
62941;SDS011;49042;47.318;19.874;2022-07-06T05:30:46;2.90;;;1.73;;
62941;SDS011;49042;47.318;19.874;2022-07-06T05:33:47;5.90;;;1.50;;
62941;SDS011;49042;47.318;19.874;2022-07-06T05:36:50;2.17;;;1.50;;
62941;SDS011;49042;47.318;19.874;2022-07-06T05:39:51;1.73;;;1.45;;
62941;SDS011;49042;47.318;19.874;2022-07-06T05:42:53;5.07;;;1.67;;
62941;SDS011;49042;47.318;19.874;2022-07-06T05:45:55;2.42;;;1.40;;
62941;SDS011;49042;47.318;19.874;2022-07-06T05:48:57;4.93;;;1.60;;
62941;SDS011;49042;47.318;19.874;2022-07-06T05:52:18;4.47;;;1.80;;
62941;SDS011;49042;47.318;19.874;2022-07-06T05:55:19;1.83;;;1.50;;
62941;SDS011;49042;47.318;19.874;2022-07-06T05:58:21;6.55;;;1.52;;
62941;SDS011;49042;47.318;19.874;2022-07-06T06:01:26;5.25;;;1.83;;
62941;SDS011;49042;47.318;19.874;2022-07-06T06:04:28;4.87;;;1.58;;
62941;SDS011;49042;47.318;19.874;2022-07-06T06:07:30;2.53;;;1.42;;
62941;SDS011;49042;47.318;19.874;2022-07-06T06:10:32;3.20;;;1.40;;
62941;SDS011;49042;47.318;19.874;2022-07-06T06:13:34;2.33;;;1.48;;
62941;SDS011;49042;47.318;19.874;2022-07-06T06:16:35;5.82;;;1.75;;
62941;SDS011;49042;47.318;19.874;2022-07-06T06:19:38;3.60;;;1.70;;
62941;SDS011;49042;47.318;19.874;2022-07-06T06:22:53;13.48;;;2.97;;
62941;SDS011;49042;47.318;19.874;2022-07-06T06:25:56;2.37;;;1.58;;
62941;SDS011;49042;47.318;19.874;2022-07-06T06:28:58;4.03;;;1.73;;
62941;SDS011;49042;47.318;19.874;2022-07-06T06:32:00;5.80;;;1.37;;
62941;SDS011;49042;47.318;19.874;2022-07-06T06:35:02;3.37;;;1.20;;
62941;SDS011;49042;47.318;19.874;2022-07-06T06:38:05;1.85;;;1.35;;
62941;SDS011;49042;47.318;19.874;2022-07-06T06:41:07;1.50;;;1.10;;
62941;SDS011;49042;47.318;19.874;2022-07-06T06:44:09;1.85;;;0.90;;
62941;SDS011;49042;47.318;19.874;2022-07-06T06:47:11;1.30;;;1.02;;
62941;SDS011;49042;47.318;19.874;2022-07-06T06:50:13;2.70;;;0.98;;
62941;SDS011;49042;47.318;19.874;2022-07-06T06:53:14;1.70;;;0.88;;
62941;SDS011;49042;47.318;19.874;2022-07-06T06:56:16;1.52;;;0.90;;
62941;SDS011;49042;47.318;19.874;2022-07-06T06:59:18;0.68;;;0.68;;
62941;SDS011;49042;47.318;19.874;2022-07-06T07:02:20;1.48;;;0.70;;
62941;SDS011;49042;47.318;19.874;2022-07-06T07:05:22;1.92;;;0.77;;
62941;SDS011;49042;47.318;19.874;2022-07-06T07:08:24;3.08;;;0.98;;
62941;SDS011;49042;47.318;19.874;2022-07-06T07:11:26;4.18;;;0.88;;
62941;SDS011;49042;47.318;19.874;2022-07-06T07:14:28;0.98;;;0.80;;
62941;SDS011;49042;47.318;19.874;2022-07-06T07:17:30;1.60;;;1.00;;
62941;SDS011;49042;47.318;19.874;2022-07-06T07:20:32;0.95;;;0.70;;
62941;SDS011;49042;47.318;19.874;2022-07-06T07:23:34;1.80;;;0.80;;
62941;SDS011;49042;47.318;19.874;2022-07-06T07:26:36;0.90;;;0.60;;
62941;SDS011;49042;47.318;19.874;2022-07-06T07:29:39;0.50;;;0.50;;
62941;SDS011;49042;47.318;19.874;2022-07-06T07:32:40;0.93;;;0.60;;
62941;SDS011;49042;47.318;19.874;2022-07-06T07:35:42;0.50;;;0.50;;
62941;SDS011;49042;47.318;19.874;2022-07-06T07:38:44;0.60;;;0.55;;
62941;SDS011;49042;47.318;19.874;2022-07-06T07:41:46;0.90;;;0.57;;
62941;SDS011;49042;47.318;19.874;2022-07-06T07:44:47;1.08;;;0.60;;
62941;SDS011;49042;47.318;19.874;2022-07-06T07:47:49;0.95;;;0.60;;
62941;SDS011;49042;47.318;19.874;2022-07-06T07:50:51;0.88;;;0.80;;
62941;SDS011;49042;47.318;19.874;2022-07-06T07:53:53;3.97;;;1.55;;
62941;SDS011;49042;47.318;19.874;2022-07-06T07:56:54;1.83;;;1.10;;
62941;SDS011;49042;47.318;19.874;2022-07-06T07:59:56;3.37;;;2.15;;
62941;SDS011;49042;47.318;19.874;2022-07-06T08:02:58;1.37;;;0.90;;
62941;SDS011;49042;47.318;19.874;2022-07-06T08:06:00;6.72;;;1.30;;
62941;SDS011;49042;47.318;19.874;2022-07-06T08:09:02;6.90;;;1.27;;
62941;SDS011;49042;47.318;19.874;2022-07-06T08:12:06;7.62;;;3.62;;
62941;SDS011;49042;47.318;19.874;2022-07-06T08:15:08;3.85;;;1.35;;
62941;SDS011;49042;47.318;19.874;2022-07-06T08:18:10;6.18;;;1.90;;
62941;SDS011;49042;47.318;19.874;2022-07-06T08:21:12;2.78;;;0.80;;
62941;SDS011;49042;47.318;19.874;2022-07-06T08:24:29;1.67;;;0.60;;
62941;SDS011;49042;47.318;19.874;2022-07-06T08:27:31;2.70;;;0.60;;
62941;SDS011;49042;47.318;19.874;2022-07-06T08:30:32;1.77;;;0.90;;
62941;SDS011;49042;47.318;19.874;2022-07-06T08:33:36;2.72;;;1.02;;
62941;SDS011;49042;47.318;19.874;2022-07-06T08:36:38;0.85;;;0.80;;
62941;SDS011;49042;47.318;19.874;2022-07-06T08:39:40;1.98;;;1.00;;
62941;SDS011;49042;47.318;19.874;2022-07-06T08:42:42;0.80;;;0.75;;
62941;SDS011;49042;47.318;19.874;2022-07-06T08:45:46;1.10;;;0.90;;
62941;SDS011;49042;47.318;19.874;2022-07-06T08:48:51;1.40;;;0.80;;
62941;SDS011;49042;47.318;19.874;2022-07-06T08:51:53;2.05;;;0.60;;
62941;SDS011;49042;47.318;19.874;2022-07-06T08:54:55;2.37;;;1.40;;
62941;SDS011;49042;47.318;19.874;2022-07-06T08:57:58;11.98;;;2.53;;
62941;SDS011;49042;47.318;19.874;2022-07-06T09:01:00;2.05;;;0.80;;
62941;SDS011;49042;47.318;19.874;2022-07-06T09:04:03;4.95;;;1.50;;
62941;SDS011;49042;47.318;19.874;2022-07-06T09:07:08;3.20;;;0.73;;
62941;SDS011;49042;47.318;19.874;2022-07-06T09:10:10;1.37;;;0.80;;
62941;SDS011;49042;47.318;19.874;2022-07-06T09:13:13;2.80;;;1.00;;
62941;SDS011;49042;47.318;19.874;2022-07-06T09:16:15;2.47;;;0.82;;
62941;SDS011;49042;47.318;19.874;2022-07-06T09:19:37;1.87;;;0.82;;
62941;SDS011;49042;47.318;19.874;2022-07-06T09:22:40;1.20;;;0.70;;
62941;SDS011;49042;47.318;19.874;2022-07-06T09:25:42;2.28;;;1.15;;
62941;SDS011;49042;47.318;19.874;2022-07-06T09:28:49;1.25;;;0.70;;
62941;SDS011;49042;47.318;19.874;2022-07-06T09:32:02;0.70;;;0.70;;
62941;SDS011;49042;47.318;19.874;2022-07-06T09:35:05;0.85;;;0.77;;
62941;SDS011;49042;47.318;19.874;2022-07-06T09:41:13;1.50;;;0.80;;
62941;SDS011;49042;47.318;19.874;2022-07-06T09:44:21;1.08;;;0.70;;
62941;SDS011;49042;47.318;19.874;2022-07-06T09:47:31;1.52;;;0.88;;
62941;SDS011;49042;47.318;19.874;2022-07-06T09:50:39;0.98;;;0.88;;
62941;SDS011;49042;47.318;19.874;2022-07-06T09:53:45;0.82;;;0.80;;
62941;SDS011;49042;47.318;19.874;2022-07-06T09:56:53;2.10;;;0.75;;
62941;SDS011;49042;47.318;19.874;2022-07-06T09:59:55;1.20;;;0.60;;
62941;SDS011;49042;47.318;19.874;2022-07-06T10:02:59;0.55;;;0.55;;
62941;SDS011;49042;47.318;19.874;2022-07-06T10:06:02;3.15;;;1.10;;
62941;SDS011;49042;47.318;19.874;2022-07-06T10:09:08;2.78;;;0.70;;
62941;SDS011;49042;47.318;19.874;2022-07-06T10:12:13;1.23;;;0.50;;
62941;SDS011;49042;47.318;19.874;2022-07-06T10:15:18;0.55;;;0.50;;
62941;SDS011;49042;47.318;19.874;2022-07-06T10:18:22;0.50;;;0.50;;
62941;SDS011;49042;47.318;19.874;2022-07-06T10:21:24;1.80;;;0.77;;
62941;SDS011;49042;47.318;19.874;2022-07-06T10:24:27;1.77;;;0.57;;
62941;SDS011;49042;47.318;19.874;2022-07-06T10:27:30;1.15;;;0.70;;
62941;SDS011;49042;47.318;19.874;2022-07-06T10:30:33;3.20;;;0.80;;
62941;SDS011;49042;47.318;19.874;2022-07-06T10:33:39;2.78;;;0.70;;
62941;SDS011;49042;47.318;19.874;2022-07-06T10:36:48;2.35;;;0.88;;
62941;SDS011;49042;47.318;19.874;2022-07-06T10:39:56;2.08;;;0.77;;
62941;SDS011;49042;47.318;19.874;2022-07-06T10:43:16;1.33;;;0.55;;
62941;SDS011;49042;47.318;19.874;2022-07-06T10:46:18;2.87;;;0.60;;
62941;SDS011;49042;47.318;19.874;2022-07-06T10:49:23;3.70;;;0.60;;
62941;SDS011;49042;47.318;19.874;2022-07-06T10:56:00;3.80;;;0.77;;
62941;SDS011;49042;47.318;19.874;2022-07-06T10:59:09;2.08;;;0.68;;
62941;SDS011;49042;47.318;19.874;2022-07-06T11:02:15;3.80;;;0.80;;
62941;SDS011;49042;47.318;19.874;2022-07-06T11:05:39;2.83;;;0.70;;
62941;SDS011;49042;47.318;19.874;2022-07-06T11:09:08;3.35;;;1.00;;
62941;SDS011;49042;47.318;19.874;2022-07-06T11:12:15;0.80;;;0.62;;
62941;SDS011;49042;47.318;19.874;2022-07-06T11:16:07;2.12;;;0.90;;
62941;SDS011;49042;47.318;19.874;2022-07-06T11:18:58;1.95;;;0.80;;
62941;SDS011;49042;47.318;19.874;2022-07-06T11:22:06;1.27;;;0.70;;
62941;SDS011;49042;47.318;19.874;2022-07-06T11:25:09;0.60;;;0.60;;
62941;SDS011;49042;47.318;19.874;2022-07-06T11:28:11;0.80;;;0.70;;
62941;SDS011;49042;47.318;19.874;2022-07-06T11:31:15;1.92;;;0.85;;
62941;SDS011;49042;47.318;19.874;2022-07-06T11:34:18;1.10;;;0.75;;
62941;SDS011;49042;47.318;19.874;2022-07-06T11:37:27;1.30;;;0.70;;
62941;SDS011;49042;47.318;19.874;2022-07-06T11:40:29;3.95;;;0.70;;
62941;SDS011;49042;47.318;19.874;2022-07-06T11:43:31;2.25;;;0.90;;
62941;SDS011;49042;47.318;19.874;2022-07-06T11:46:33;0.60;;;0.60;;
62941;SDS011;49042;47.318;19.874;2022-07-06T11:49:36;4.22;;;0.70;;
62941;SDS011;49042;47.318;19.874;2022-07-06T11:52:39;3.15;;;0.65;;
62941;SDS011;49042;47.318;19.874;2022-07-06T11:55:41;4.28;;;0.80;;
62941;SDS011;49042;47.318;19.874;2022-07-06T11:58:43;2.22;;;0.80;;
62941;SDS011;49042;47.318;19.874;2022-07-06T12:01:48;0.95;;;0.80;;
62941;SDS011;49042;47.318;19.874;2022-07-06T12:04:49;0.93;;;0.80;;
62941;SDS011;49042;47.318;19.874;2022-07-06T12:08:03;1.02;;;0.70;;
62941;SDS011;49042;47.318;19.874;2022-07-06T12:11:08;0.70;;;0.70;;
62941;SDS011;49042;47.318;19.874;2022-07-06T12:14:14;2.83;;;0.80;;
62941;SDS011;49042;47.318;19.874;2022-07-06T12:17:17;1.23;;;0.98;;
62941;SDS011;49042;47.318;19.874;2022-07-06T12:20:19;2.40;;;1.02;;
62941;SDS011;49042;47.318;19.874;2022-07-06T12:23:21;3.53;;;0.80;;
62941;SDS011;49042;47.318;19.874;2022-07-06T12:26:25;2.25;;;0.82;;
62941;SDS011;49042;47.318;19.874;2022-07-06T12:29:29;1.15;;;0.80;;
62941;SDS011;49042;47.318;19.874;2022-07-06T12:32:31;2.97;;;0.98;;
62941;SDS011;49042;47.318;19.874;2022-07-06T12:35:34;3.12;;;0.93;;
62941;SDS011;49042;47.318;19.874;2022-07-06T12:38:36;5.80;;;1.27;;
62941;SDS011;49042;47.318;19.874;2022-07-06T12:44:49;3.30;;;1.08;;
62941;SDS011;49042;47.318;19.874;2022-07-06T12:47:59;4.25;;;1.15;;
62941;SDS011;49042;47.318;19.874;2022-07-06T12:51:06;1.15;;;1.05;;
62941;SDS011;49042;47.318;19.874;2022-07-06T12:54:14;4.12;;;1.00;;
62941;SDS011;49042;47.318;19.874;2022-07-06T13:00:18;2.55;;;0.98;;
62941;SDS011;49042;47.318;19.874;2022-07-06T13:03:21;2.35;;;1.20;;
62941;SDS011;49042;47.318;19.874;2022-07-06T13:06:29;3.30;;;1.10;;
62941;SDS011;49042;47.318;19.874;2022-07-06T13:09:33;1.15;;;0.60;;
62941;SDS011;49042;47.318;19.874;2022-07-06T13:12:35;1.35;;;0.50;;
62941;SDS011;49042;47.318;19.874;2022-07-06T13:15:40;1.23;;;0.50;;
62941;SDS011;49042;47.318;19.874;2022-07-06T13:18:43;4.15;;;0.70;;
62941;SDS011;49042;47.318;19.874;2022-07-06T13:21:44;4.15;;;0.60;;
62941;SDS011;49042;47.318;19.874;2022-07-06T13:24:46;4.12;;;1.35;;
62941;SDS011;49042;47.318;19.874;2022-07-06T13:27:48;0.98;;;0.50;;
62941;SDS011;49042;47.318;19.874;2022-07-06T13:30:50;1.02;;;0.50;;
62941;SDS011;49042;47.318;19.874;2022-07-06T13:33:52;2.20;;;0.73;;
62941;SDS011;49042;47.318;19.874;2022-07-06T13:36:54;0.65;;;0.60;;
62941;SDS011;49042;47.318;19.874;2022-07-06T13:39:55;0.70;;;0.70;;
62941;SDS011;49042;47.318;19.874;2022-07-06T13:42:57;2.58;;;0.60;;
62941;SDS011;49042;47.318;19.874;2022-07-06T13:45:59;1.25;;;0.80;;
62941;SDS011;49042;47.318;19.874;2022-07-06T13:49:01;0.85;;;0.68;;
62941;SDS011;49042;47.318;19.874;2022-07-06T13:52:04;2.55;;;1.50;;
62941;SDS011;49042;47.318;19.874;2022-07-06T13:55:06;1.77;;;0.60;;
62941;SDS011;49042;47.318;19.874;2022-07-06T13:58:08;2.87;;;0.70;;
62941;SDS011;49042;47.318;19.874;2022-07-06T14:01:11;0.95;;;0.57;;
62941;SDS011;49042;47.318;19.874;2022-07-06T14:04:21;1.98;;;0.60;;
62941;SDS011;49042;47.318;19.874;2022-07-06T14:07:22;2.45;;;0.50;;
62941;SDS011;49042;47.318;19.874;2022-07-06T14:10:24;1.10;;;0.82;;
62941;SDS011;49042;47.318;19.874;2022-07-06T14:13:26;2.80;;;0.70;;
62941;SDS011;49042;47.318;19.874;2022-07-06T14:16:28;0.98;;;0.47;;
62941;SDS011;49042;47.318;19.874;2022-07-06T14:19:30;1.23;;;0.80;;
62941;SDS011;49042;47.318;19.874;2022-07-06T14:22:32;3.03;;;0.70;;
62941;SDS011;49042;47.318;19.874;2022-07-06T14:25:34;1.85;;;0.60;;
62941;SDS011;49042;47.318;19.874;2022-07-06T14:28:36;3.03;;;0.70;;
62941;SDS011;49042;47.318;19.874;2022-07-06T14:31:37;1.40;;;0.85;;
62941;SDS011;49042;47.318;19.874;2022-07-06T14:34:39;4.00;;;0.70;;
62941;SDS011;49042;47.318;19.874;2022-07-06T14:37:41;0.65;;;0.60;;
62941;SDS011;49042;47.318;19.874;2022-07-06T14:40:43;1.27;;;0.90;;
62941;SDS011;49042;47.318;19.874;2022-07-06T14:43:45;0.65;;;0.65;;
62941;SDS011;49042;47.318;19.874;2022-07-06T14:46:47;0.60;;;0.60;;
62941;SDS011;49042;47.318;19.874;2022-07-06T14:49:50;1.15;;;0.77;;
62941;SDS011;49042;47.318;19.874;2022-07-06T14:52:54;1.52;;;0.95;;
62941;SDS011;49042;47.318;19.874;2022-07-06T14:55:56;0.65;;;0.60;;
62941;SDS011;49042;47.318;19.874;2022-07-06T14:58:58;2.70;;;0.93;;
62941;SDS011;49042;47.318;19.874;2022-07-06T15:02:20;2.08;;;0.90;;
62941;SDS011;49042;47.318;19.874;2022-07-06T15:05:22;0.90;;;0.80;;
62941;SDS011;49042;47.318;19.874;2022-07-06T15:08:24;2.85;;;1.08;;
62941;SDS011;49042;47.318;19.874;2022-07-06T15:11:26;3.30;;;1.15;;
62941;SDS011;49042;47.318;19.874;2022-07-06T15:14:28;5.72;;;1.20;;
62941;SDS011;49042;47.318;19.874;2022-07-06T15:17:30;3.78;;;1.15;;
62941;SDS011;49042;47.318;19.874;2022-07-06T15:20:33;5.72;;;1.20;;
62941;SDS011;49042;47.318;19.874;2022-07-06T15:23:35;2.60;;;0.93;;
62941;SDS011;49042;47.318;19.874;2022-07-06T15:26:36;3.03;;;1.05;;
62941;SDS011;49042;47.318;19.874;2022-07-06T15:29:39;4.07;;;1.27;;
62941;SDS011;49042;47.318;19.874;2022-07-06T15:32:40;7.57;;;1.30;;
62941;SDS011;49042;47.318;19.874;2022-07-06T15:35:42;4.50;;;1.55;;
62941;SDS011;49042;47.318;19.874;2022-07-06T15:38:45;6.97;;;1.50;;
62941;SDS011;49042;47.318;19.874;2022-07-06T15:41:47;5.97;;;1.60;;
62941;SDS011;49042;47.318;19.874;2022-07-06T15:44:49;7.35;;;1.25;;
62941;SDS011;49042;47.318;19.874;2022-07-06T15:47:53;3.35;;;1.35;;
62941;SDS011;49042;47.318;19.874;2022-07-06T15:50:54;3.20;;;1.30;;
62941;SDS011;49042;47.318;19.874;2022-07-06T15:53:57;2.80;;;1.55;;
62941;SDS011;49042;47.318;19.874;2022-07-06T15:56:59;7.32;;;1.52;;
62941;SDS011;49042;47.318;19.874;2022-07-06T16:00:01;8.27;;;1.73;;
62941;SDS011;49042;47.318;19.874;2022-07-06T16:03:03;5.85;;;1.30;;
62941;SDS011;49042;47.318;19.874;2022-07-06T16:06:05;3.75;;;1.30;;
62941;SDS011;49042;47.318;19.874;2022-07-06T16:09:10;8.30;;;1.45;;
62941;SDS011;49042;47.318;19.874;2022-07-06T16:12:12;3.28;;;1.50;;
62941;SDS011;49042;47.318;19.874;2022-07-06T16:15:14;4.20;;;1.23;;
62941;SDS011;49042;47.318;19.874;2022-07-06T16:18:16;4.62;;;1.42;;
62941;SDS011;49042;47.318;19.874;2022-07-06T16:21:19;4.25;;;1.08;;
62941;SDS011;49042;47.318;19.874;2022-07-06T16:24:21;3.17;;;1.37;;
62941;SDS011;49042;47.318;19.874;2022-07-06T16:27:23;3.97;;;1.42;;
62941;SDS011;49042;47.318;19.874;2022-07-06T16:30:25;3.55;;;1.40;;
62941;SDS011;49042;47.318;19.874;2022-07-06T16:33:27;10.13;;;1.52;;
62941;SDS011;49042;47.318;19.874;2022-07-06T16:36:29;3.45;;;1.30;;
62941;SDS011;49042;47.318;19.874;2022-07-06T16:39:31;4.62;;;1.30;;
62941;SDS011;49042;47.318;19.874;2022-07-06T16:42:36;2.42;;;1.30;;
62941;SDS011;49042;47.318;19.874;2022-07-06T16:45:38;2.65;;;1.50;;
62941;SDS011;49042;47.318;19.874;2022-07-06T16:48:40;1.52;;;1.20;;
62941;SDS011;49042;47.318;19.874;2022-07-06T16:51:42;2.70;;;1.25;;
62941;SDS011;49042;47.318;19.874;2022-07-06T16:54:44;2.92;;;1.30;;
62941;SDS011;49042;47.318;19.874;2022-07-06T16:57:45;3.90;;;1.30;;
62941;SDS011;49042;47.318;19.874;2022-07-06T17:00:47;2.10;;;1.00;;
62941;SDS011;49042;47.318;19.874;2022-07-06T17:03:49;3.72;;;1.23;;
62941;SDS011;49042;47.318;19.874;2022-07-06T17:06:51;3.58;;;1.65;;
62941;SDS011;49042;47.318;19.874;2022-07-06T17:09:53;2.08;;;1.45;;
62941;SDS011;49042;47.318;19.874;2022-07-06T17:12:55;3.50;;;1.45;;
62941;SDS011;49042;47.318;19.874;2022-07-06T17:15:57;4.78;;;1.30;;
62941;SDS011;49042;47.318;19.874;2022-07-06T17:18:58;2.50;;;1.10;;
62941;SDS011;49042;47.318;19.874;2022-07-06T17:22:00;1.35;;;1.02;;
62941;SDS011;49042;47.318;19.874;2022-07-06T17:25:06;2.55;;;1.42;;
62941;SDS011;49042;47.318;19.874;2022-07-06T17:28:09;3.75;;;1.17;;
62941;SDS011;49042;47.318;19.874;2022-07-06T17:31:11;2.83;;;1.33;;
62941;SDS011;49042;47.318;19.874;2022-07-06T17:34:13;3.30;;;1.20;;
62941;SDS011;49042;47.318;19.874;2022-07-06T17:37:15;3.35;;;1.40;;
62941;SDS011;49042;47.318;19.874;2022-07-06T17:40:18;3.42;;;1.25;;
62941;SDS011;49042;47.318;19.874;2022-07-06T17:43:23;5.68;;;1.30;;
62941;SDS011;49042;47.318;19.874;2022-07-06T17:46:25;8.02;;;1.20;;
62941;SDS011;49042;47.318;19.874;2022-07-06T17:49:27;4.70;;;1.23;;
62941;SDS011;49042;47.318;19.874;2022-07-06T17:52:31;7.95;;;1.30;;
62941;SDS011;49042;47.318;19.874;2022-07-06T17:55:33;5.03;;;1.60;;
62941;SDS011;49042;47.318;19.874;2022-07-06T17:58:35;7.55;;;1.50;;
62941;SDS011;49042;47.318;19.874;2022-07-06T18:01:36;5.62;;;1.23;;
62941;SDS011;49042;47.318;19.874;2022-07-06T18:04:38;1.48;;;1.00;;
62941;SDS011;49042;47.318;19.874;2022-07-06T18:07:40;5.20;;;1.30;;
62941;SDS011;49042;47.318;19.874;2022-07-06T18:10:42;6.72;;;1.20;;
62941;SDS011;49042;47.318;19.874;2022-07-06T18:13:44;3.53;;;1.23;;
62941;SDS011;49042;47.318;19.874;2022-07-06T18:16:46;3.65;;;1.35;;
62941;SDS011;49042;47.318;19.874;2022-07-06T18:19:49;2.92;;;1.30;;